• Join FlightAware (Why Join?)
  • Login
  • US Flag 
08:04AM EDT


 

Airport Tracker/Info


-or-


 

Live Flight TrackerFlight Track Log ✈ N1926A ✈ 14-May-2013 ✈ KASG - 41A

Flight Track Log - Related Links

Times and Time Zones

All times are in EDT time to prevent confusion due to time zone crossing. See the N1926A flight status page for this flight to view local times or setup timezone preferences in your user account.

Time Position Orientation Groundspeed Altitude Reporting Facility
EDT Latitude Longitude Course Direction KTS MPH feet Rate Location/Type
04:22PM 36.0481 -93.8200 104° East 208 239 11,900  Level Memphis Center
04:23PM 36.0113 -93.7225 122° Southeast  Level FlightAware Approximate
04:23PM 36.0269 -93.7575 113° Southeast 202 232 13,700  Level Memphis Center
04:24PM 35.9811 -93.6432 112° Southeast  Level FlightAware Approximate
04:24PM 36.0014 -93.6950 117° Southeast 202 232 15,400  Level Memphis Center
04:25PM 35.9540 -93.5620 112° Southeast  Level FlightAware Approximate
04:25PM 35.9739 -93.6350 120° Southeast 202 232 17,100  Level Memphis Center
04:26PM 35.9245 -93.4824 122° Southeast  Level FlightAware Approximate
04:26PM 35.9483 -93.5722 117° Southeast 202 232 18,600  Level Memphis Center
04:27PM 35.8872 -93.4077 122° Southeast  Level FlightAware Approximate
04:27PM 35.9186 -93.5122 121° Southeast 202 232 20,000  Level Memphis Center
04:28PM 35.8590 -93.3283 104° East  Level FlightAware Approximate
04:28PM 35.8892 -93.4444 118° Southeast 212 244 21,300  Level Memphis Center
04:29PM 35.8633 -93.3819 117° Southeast 207 238 22,600 1,200 Climbing Memphis Center
04:30PM 35.8400 -93.3147 113° Southeast 207 238 23,700 1,140 Climbing Memphis Center
04:31PM 35.8186 -93.2497 112° Southeast 202 232 24,900 600 Climbing Memphis Center
04:32PM 35.7911 -93.1772 115° Southeast 209 241 25,000  Climbing Memphis Center
04:33PM 35.7575 -93.0994 118° Southeast 235 270 25,000  Level Memphis Center
04:34PM 35.7258 -93.0164 115° Southeast 255 293 25,000  Level Memphis Center
04:35PM 35.6942 -92.9336 115° Southeast 262 302 25,000  Level Memphis Center
04:36PM 35.6644 -92.8536 115° Southeast 267 307 25,000  Level Memphis Center
04:37PM 35.6328 -92.7683 115° Southeast 268 308 25,000  Level Memphis Center
04:38PM 35.5972 -92.6650 113° Southeast 278 320 25,000  Level Memphis Center
04:39PM 35.5656 -92.5800 115° Southeast 278 320 25,000  Level Memphis Center
04:40PM 35.5336 -92.4950 115° Southeast 278 320 25,000  Level Memphis Center
04:41PM 35.4994 -92.4075 116° Southeast 278 320 25,000  Level Memphis Center
04:42PM 35.4656 -92.3250 117° Southeast 278 320 25,000  Level Memphis Center
04:43PM 35.4292 -92.2400 118° Southeast 278 320 25,000  Level Memphis Center
04:44PM 35.3928 -92.1578 118° Southeast 278 320 25,000  Level Memphis Center
04:45PM 35.3586 -92.0806 118° Southeast 278 320 25,000  Level Memphis Center
04:46PM 35.3219 -91.9958 118° Southeast 273 314 25,000  Level Memphis Center
04:47PM 35.2878 -91.9114 116° Southeast 273 314 25,000  Level Memphis Center
04:48PM 35.2533 -91.8292 117° Southeast 273 314 25,000  Level Memphis Center
04:49PM 35.2186 -91.7447 117° Southeast 273 314 25,000  Level Memphis Center
04:50PM 35.1819 -91.6628 119° Southeast 273 314 25,000  Level Memphis Center
04:51PM 35.1494 -91.5786 115° Southeast 273 314 25,000  Level Memphis Center
04:52PM 35.1106 -91.4969 120° Southeast 273 314 25,000  Level Memphis Center
04:53PM 35.0781 -91.4125 115° Southeast 273 314 25,000  Level Memphis Center
04:54PM 35.0411 -91.3311 119° Southeast 273 314 25,000  Level Memphis Center
04:55PM 35.0042 -91.2469 118° Southeast 273 314 25,000  Level Memphis Center
04:56PM 34.9672 -91.1656 119° Southeast 273 314 25,000  Level Memphis Center
04:57PM 34.9364 -91.0817 114° Southeast 273 314 25,000  Level Memphis Center
04:58PM 34.9014 -90.9978 117° Southeast 273 314 25,000  Level Memphis Center
04:59PM 34.8642 -90.9164 119° Southeast 273 314 25,000  Level Memphis Center
05:00PM 34.8311 -90.8428 119° Southeast 273 314 25,000  Level Memphis Center
05:01PM 34.7961 -90.7617 118° Southeast 273 314 25,000  Level Memphis Center
05:02PM 34.7567 -90.6806 121° Southeast 273 314 25,000  Level Memphis Center
05:03PM 34.7214 -90.5972 117° Southeast 273 314 25,000  Level Memphis Center
05:04PM 34.6858 -90.5161 118° Southeast 273 314 25,000  Level Memphis Center
05:05PM 34.6506 -90.4328 117° Southeast 273 314 25,000  Level Memphis Center
05:06PM 34.6150 -90.3547 119° Southeast 273 314 25,000  Level Memphis Center
05:07PM 34.5797 -90.2689 117° Southeast 273 314 25,000  Level Memphis Center
05:08PM 34.5397 -90.1806 119° Southeast 273 314 25,000  Level Memphis Center
05:09PM 34.5042 -90.1000 118° Southeast 273 314 25,000  Level Memphis Center
05:10PM 34.4664 -90.0169 119° Southeast 273 314 25,000  Level Memphis Center
05:11PM 34.4308 -89.9367 118° Southeast 273 314 25,000  Level Memphis Center
05:12PM 34.3928 -89.8539 119° Southeast 273 314 25,000  Level Memphis Center
05:13PM 34.3569 -89.7733 118° Southeast 273 314 25,000  Level Memphis Center
05:14PM 34.3211 -89.6908 118° Southeast 273 314 25,000  Level Memphis Center
05:15PM 34.2831 -89.6106 120° Southeast 273 314 25,000  Level Memphis Center
05:16PM 34.2492 -89.5281 116° Southeast 273 314 25,000  Level Memphis Center
05:17PM 34.2131 -89.4453 118° Southeast 273 314 25,000  Level Memphis Center
05:18PM 34.1750 -89.3631 119° Southeast 273 314 25,000  Level Memphis Center
05:19PM 34.1389 -89.2831 119° Southeast 273 314 25,000  Level Memphis Center
05:20PM 34.1006 -89.1983 119° Southeast 273 314 25,000  Level Memphis Center
05:21PM 34.0683 -89.1261 118° Southeast 273 314 25,000  Level Memphis Center
05:22PM 34.0300 -89.0439 119° Southeast 273 314 25,000  Level Memphis Center
05:23PM 33.9917 -88.9617 119° Southeast 273 314 25,000  Level Memphis Center
05:24PM 33.9553 -88.8797 118° Southeast 278 320 25,000  Level Memphis Center
05:25PM 33.9144 -88.8028 123° Southeast 278 320 25,000  Level Memphis Center
05:26PM 33.8781 -88.7208 118° Southeast 278 320 25,000  Level Memphis Center
05:27PM 33.8394 -88.6392 120° Southeast 273 314 25,000  Level Memphis Center
05:28PM 33.8006 -88.5550 119° Southeast 278 320 25,000  Level Memphis Center
05:29PM 33.7639 -88.4731 118° Southeast 278 320 25,000  Level Memphis Center
05:30PM 33.7208 -88.3942 123° Southeast 278 320 25,000  Level Memphis Center
05:31PM 33.6819 -88.3128 120° Southeast 278 320 25,000 -60 Level Memphis Center
05:34PM 33.5953 -88.1139 118° Southeast 279 321 24,800 -240 Descending Atlanta Center
05:35PM 33.5564 -88.0272 118° Southeast 284 327 24,200 -420 Descending Atlanta Center
05:36PM 33.5194 -87.9408 117° Southeast 289 333 24,000 -120 Descending Atlanta Center
05:37PM 33.4806 -87.8567 119° Southeast 289 333 24,000  Level Atlanta Center
05:38PM 33.4414 -87.7728 119° Southeast 289 333 24,000  Level Atlanta Center
05:39PM 33.4000 -87.6917 121° Southeast 289 333 24,000  Level Atlanta Center
05:40PM 33.3544 -87.6000 121° Southeast 289 333 24,000 -540 Level Atlanta Center
05:41PM 33.3131 -87.5139 120° Southeast 294 338 23,000 -1,320 Descending Atlanta Center
05:42PM 33.2658 -87.4200 121° Southeast 307 353 21,400 -1,260 Descending Atlanta Center
05:43PM 33.2222 -87.3289 120° Southeast 317 365 20,500 -960 Descending Atlanta Center
05:44PM 33.1786 -87.2381 120° Southeast 322 371 19,500 -1,200 Descending Atlanta Center
05:45PM 33.1375 -87.1397 117° Southeast 322 371 18,100 -1,440 Descending Atlanta Center
05:46PM 33.0958 -87.0539 120° Southeast 322 371 16,700 -1,440 Descending Atlanta Center
05:47PM 33.0519 -86.9608 119° Southeast 322 371 15,300 2,100 Descending Atlanta Center
05:48PM 33.0083 -86.8700 120° Southeast 322 371 21,000 -1,500 Climbing Atlanta Center
05:49PM 32.9622 -86.7819 122° Southeast 322 371 12,300 -5,100 Descending Atlanta Center
05:50PM 32.9203 -86.6964 120° Southeast 317 365 10,800 -1,500 Descending Atlanta Center
05:51PM 32.8761 -86.6086 121° Southeast 312 359 9,300 -1,440 Descending Atlanta Center
05:52PM 32.8381 -86.5283 119° Southeast 299 344 8,000 -1,560 Descending Atlanta Center
05:53PM 32.7961 -86.4456 121° Southeast 294 338 6,200 -1,080 Descending Atlanta Center
05:54PM 32.7536 -86.3681 123° Southeast 294 338 5,900 -180 Descending Atlanta Center
05:55PM 32.7114 -86.2806 120° Southeast 287 330 5,900 7,500 Level Atlanta Center
05:56PM 32.6711 -86.1956 119° Southeast 287 330 21,000 15,060 Climbing Atlanta Center
05:58PM 32.6118 -86.0736 121° Southeast  Level FlightAware Approximate
06:05PM 32.5149 -85.8762 121° Southeast  Level Estimated
06:06PM 32.5149 -85.8762 121° Southeast  Level Estimated
06:07PM 32.5149 -85.8762 121° Southeast  Level Estimated
06:08PM 32.5149 -85.8762 121° Southeast  Level Estimated
06:09PM 32.5149 -85.8762 121° Southeast  Level Estimated
06:10PM 32.5149 -85.8762 121° Southeast  Level Estimated
06:11PM 32.5149 -85.8762 121° Southeast  Level Estimated